Aeroporto :
LOGIN :

Iscrizione | Disclaimer

   EN    FR    IT 

 










Sommario :    VFR   VFR Marginale   IFR   IFR Intensivo   IFR Molto Intensivo
Visibilità : 
Base nubi : 
>= 8 km
>= 3000ft
5 / 8 km
1000 / 3000 ft
1500m / 5 km
500 / 1000 ft
800 / 1500m
200 / 500 ft
< 800m
< 200 ft
Simboli :   Temporali  Nebbia  Neve Forte  Precipitazioni Forti  Vento > 20 kt
SIGMETs :   Varie  Temporali  Ghiacco  Turbolenza  Onda orograficha  Ceneri Vulcaniche






- Altitudine del aeroporto : 1273 ft
- Codice IATA : LJU


LJLJ - Ljubljana

ULTIMO METAR :
  • 051300Z 20003KT 140V290 9999 FEW030 SCT040 BKN110 22/14 Q1007 NOSIG

METARs OBSOLETI :
  • 051230Z 17005KT 9999 FEW020 SCT040 BKN110 21/16 Q1007 NOSIG
  • 051200Z 18003KT 130V240 9999 FEW020 SCT040 BKN110 21/16 Q1007 NOSIG
  • 051130Z 19001KT 9999 FEW020 SCT040 BKN110 21/16 Q1007 NOSIG
  • 051100Z 26004KT 210V340 9999 FEW010TCU SCT040 BKN110 20/16 Q1007 NOSIG

TAF TAF LJLJ
Valido dal 05 a 12 ore il 06 a 12 ore UTC


051100Z 0512/0612 12005KT 9999 FEW010 BKN060
PROB30
TEMPO 0515/0520 SHRA SCT040TCU
PROB40
TEMPO 0600/0607 1000 BCFG BKN002
TEMPO 0609/0612 SHRA SCT040TCU
PROB40
TEMPO 0609/0612 5000 TSRA SCT040CB



MetMap, La meteo Aeronautica in un colpo d'occhio ! - Copyright ORBIFLY Dicembre 2007 - Disclaimer

ORBIFLY MET'MAP TEAM :

Programmazione e sviluppo : Alexandra Zaïnal
Concezione : Baudouin d'Aumeries
Aiuto per la programmazione : Marc-Olivier Méhu
Supporto tecnico e logistico : Manuel Goepfert
Aiuto per la traduzione : Arnaldo La Scala

Contatto : metmap@orbifly.com




FONTI E CREDITI :

   NOAA